Time;durP1;ratioP1;P1;durP2;ratioP2;P2;SDS_P1;SDS_P2;PMS_P1;PMS_P2;Temp;Humidity;BMP_temperature;BMP_pressure;BME280_temperature;BME280_humidity;BME280_pressure;Samples;Min_cycle;Max_cycle;Signal;HPM_P1;HPM_P2
2023/11/27 00:02:22;;;;;;;5.10;3.13;;;9.60;99.90;;;;;;4971308;28;20067;-76
2023/11/27 00:04:49;;;;;;;3.65;2.90;;;9.60;99.90;;;;;;4972772;28;20049;-77
2023/11/27 00:07:14;;;;;;;4.15;2.92;;;9.60;99.90;;;;;;4972581;28;20034;-77
2023/11/27 00:09:40;;;;;;;6.78;2.90;;;9.60;99.90;;;;;;4972678;28;20023;-77
2023/11/27 00:12:06;;;;;;;10.20;3.53;;;9.60;99.90;;;;;;4972196;28;20027;-78
2023/11/27 00:14:32;;;;;;;4.90;3.05;;;9.60;99.90;;;;;;4976431;28;20106;-77
2023/11/27 00:16:57;;;;;;;5.10;3.20;;;9.60;99.90;;;;;;4973340;28;20134;-77
2023/11/27 00:19:23;;;;;;;6.63;3.60;;;9.50;99.90;;;;;;4972298;28;20023;-77
2023/11/27 00:21:48;;;;;;;5.15;3.17;;;9.50;99.90;;;;;;4972285;28;20041;-77
2023/11/27 00:24:14;;;;;;;5.32;3.30;;;9.50;99.90;;;;;;4977804;28;20030;-77
2023/11/27 00:26:40;;;;;;;4.15;3.05;;;9.50;99.90;;;;;;4973676;28;20023;-78
2023/11/27 00:29:06;;;;;;;5.65;3.20;;;9.50;99.90;;;;;;4970840;28;20088;-78
2023/11/27 00:31:34;;;;;;;5.70;3.60;;;9.50;99.90;;;;;;4972339;28;20531;-77
2023/11/27 00:34:00;;;;;;;6.15;3.42;;;9.50;99.90;;;;;;4971138;28;20076;-77
2023/11/27 00:36:26;;;;;;;7.07;3.50;;;9.50;99.90;;;;;;4974901;28;20110;-78
2023/11/27 00:38:52;;;;;;;6.72;3.63;;;9.50;99.90;;;;;;4969987;28;20069;-77
2023/11/27 00:41:18;;;;;;;4.88;3.67;;;9.50;99.90;;;;;;4970646;28;20062;-78
2023/11/27 00:43:44;;;;;;;4.53;3.65;;;9.50;99.90;;;;;;4971899;28;20527;-77
2023/11/27 00:46:10;;;;;;;6.88;3.63;;;9.50;99.90;;;;;;4971427;28;20025;-77
2023/11/27 00:48:37;;;;;;;7.38;4.30;;;9.50;99.90;;;;;;4972075;28;20038;-77
2023/11/27 00:51:03;;;;;;;5.03;3.78;;;9.50;99.90;;;;;;4972013;28;20077;-77
2023/11/27 00:53:29;;;;;;;6.13;3.95;;;9.50;99.90;;;;;;4973773;28;20031;-77
2023/11/27 00:55:54;;;;;;;9.30;3.80;;;9.50;99.90;;;;;;4972581;28;20023;-77
2023/11/27 00:58:20;;;;;;;8.07;4.07;;;9.50;99.90;;;;;;4971885;28;20023;-77
2023/11/27 01:00:45;;;;;;;6.15;3.80;;;9.50;99.90;;;;;;4971397;28;20019;-77
2023/11/27 01:03:11;;;;;;;6.43;4.25;;;9.50;99.90;;;;;;4971406;28;20062;-77
2023/11/27 01:05:37;;;;;;;13.48;4.25;;;9.50;99.90;;;;;;4971354;28;20098;-77
2023/11/27 01:08:04;;;;;;;9.32;3.83;;;9.50;99.90;;;;;;4970220;28;20472;-77
2023/11/27 01:10:31;;;;;;;6.90;4.45;;;9.50;99.90;;;;;;4971169;28;20042;-77
2023/11/27 01:12:57;;;;;;;7.80;3.95;;;9.50;99.90;;;;;;4970163;28;20026;-77
2023/11/27 01:15:23;;;;;;;11.60;5.03;;;9.50;99.90;;;;;;4971117;28;20399;-77
2023/11/27 01:17:48;;;;;;;6.05;4.03;;;9.50;99.90;;;;;;4971506;28;20700;-77
2023/11/27 01:20:14;;;;;;;6.03;4.00;;;9.50;99.90;;;;;;4971302;28;20029;-77
2023/11/27 01:22:40;;;;;;;8.32;4.53;;;9.50;99.90;;;;;;4971064;28;20031;-78
2023/11/27 01:25:06;;;;;;;7.22;4.13;;;9.40;99.90;;;;;;4969947;28;20039;-77
2023/11/27 01:27:32;;;;;;;6.35;4.15;;;9.40;99.90;;;;;;4971328;28;20031;-77
2023/11/27 01:29:58;;;;;;;10.07;5.10;;;9.50;99.90;;;;;;4971261;28;20031;-77
2023/11/27 01:32:26;;;;;;;9.40;5.05;;;9.40;99.90;;;;;;4970709;28;20116;-78
2023/11/27 01:34:52;;;;;;;7.93;4.53;;;9.50;99.90;;;;;;4970797;28;20018;-77
2023/11/27 01:37:18;;;;;;;5.40;4.43;;;9.40;99.90;;;;;;4968990;28;20022;-77
2023/11/27 01:39:44;;;;;;;7.13;4.80;;;9.40;99.90;;;;;;4979787;28;20702;-77
2023/11/27 01:42:10;;;;;;;10.38;4.85;;;9.40;99.90;;;;;;4971136;28;20028;-77
2023/11/27 01:44:36;;;;;;;9.25;5.00;;;9.40;99.90;;;;;;4969704;28;20480;-77
2023/11/27 01:47:03;;;;;;;6.82;5.32;;;9.40;99.90;;;;;;4970219;28;20105;-78
2023/11/27 01:49:29;;;;;;;5.90;4.47;;;9.40;99.90;;;;;;4971291;28;20031;-77
2023/11/27 01:51:56;;;;;;;10.10;4.85;;;9.40;99.90;;;;;;4973085;28;20038;-78
2023/11/27 01:54:22;;;;;;;8.95;5.45;;;9.40;99.90;;;;;;4970622;28;20491;-77
2023/11/27 01:56:50;;;;;;;8.75;5.20;;;9.40;99.90;;;;;;4970783;28;20472;-77
2023/11/27 01:59:17;;;;;;;8.50;5.50;;;9.40;99.90;;;;;;4969558;28;20046;-77
2023/11/27 02:01:44;;;;;;;8.27;5.15;;;9.40;99.90;;;;;;4970344;28;20039;-77
2023/11/27 02:04:09;;;;;;;9.27;5.13;;;9.40;99.90;;;;;;4970742;28;20106;-77
2023/11/27 02:06:36;;;;;;;8.60;5.53;;;9.40;99.90;;;;;;4973669;28;20058;-78
2023/11/27 02:09:02;;;;;;;9.95;5.53;;;9.40;99.90;;;;;;4970429;28;20030;-78
2023/11/27 02:11:28;;;;;;;11.00;5.75;;;9.40;99.90;;;;;;4969292;28;20023;-77
2023/11/27 02:13:53;;;;;;;8.27;5.35;;;9.40;99.90;;;;;;4969315;28;20077;-76
2023/11/27 02:16:20;;;;;;;10.48;5.38;;;9.40;99.90;;;;;;4968958;28;20073;-77
2023/11/27 02:18:45;;;;;;;9.00;6.05;;;9.40;99.90;;;;;;4970930;28;20435;-78
2023/11/27 02:21:11;;;;;;;14.48;5.32;;;9.40;99.90;;;;;;4969133;28;20019;-78
2023/11/27 02:23:37;;;;;;;7.88;5.65;;;9.50;99.90;;;;;;4970367;28;20542;-77
2023/11/27 02:26:04;;;;;;;6.80;5.20;;;9.40;99.90;;;;;;4969076;28;20023;-77
2023/11/27 02:28:30;;;;;;;10.05;5.05;;;9.50;99.90;;;;;;4967351;28;20504;-77
2023/11/27 02:30:55;;;;;;;11.00;5.03;;;9.40;99.90;;;;;;4973147;28;20073;-77
2023/11/27 02:33:21;;;;;;;11.55;5.00;;;9.40;99.90;;;;;;4968419;28;20444;-77
2023/11/27 02:35:48;;;;;;;12.55;6.25;;;9.50;99.90;;;;;;4969419;28;20023;-76
2023/11/27 02:38:13;;;;;;;13.15;6.15;;;9.50;99.90;;;;;;4968682;28;20496;-78
2023/11/27 02:40:40;;;;;;;12.50;5.82;;;9.40;99.90;;;;;;4970019;28;20047;-77
2023/11/27 02:43:05;;;;;;;12.85;5.60;;;9.50;99.90;;;;;;4971659;28;20027;-77
2023/11/27 02:45:33;;;;;;;8.48;5.50;;;9.50;99.90;;;;;;4969890;28;20031;-77
2023/11/27 02:47:58;;;;;;;9.57;5.85;;;9.50;99.90;;;;;;4970245;28;20500;-78
2023/11/27 02:50:24;;;;;;;10.68;5.47;;;9.50;99.90;;;;;;4972652;28;20034;-77
2023/11/27 02:52:50;;;;;;;10.35;5.95;;;9.50;99.90;;;;;;4971709;28;20065;-77
2023/11/27 02:55:16;;;;;;;8.43;5.53;;;9.50;99.90;;;;;;4972472;28;20022;-78
2023/11/27 02:57:42;;;;;;;15.50;5.65;;;9.50;99.90;;;;;;4971198;28;20043;-77
2023/11/27 03:00:12;;;;;;;10.07;6.38;;;9.50;99.90;;;;;;4974169;28;20053;-78
2023/11/27 03:02:38;;;;;;;9.55;5.90;;;9.50;99.90;;;;;;4971067;28;20035;-78
2023/11/27 03:05:07;;;;;;;13.10;5.90;;;9.50;99.90;;;;;;4978469;28;20037;-78
2023/11/27 03:07:34;;;;;;;9.97;6.03;;;9.40;99.90;;;;;;4974003;28;20484;-77
2023/11/27 03:09:59;;;;;;;11.40;6.82;;;9.50;99.90;;;;;;4973596;28;20026;-77
2023/11/27 03:12:25;;;;;;;12.95;7.43;;;9.40;99.90;;;;;;4973477;28;20582;-78
2023/11/27 03:14:50;;;;;;;11.57;6.80;;;9.40;99.90;;;;;;4973892;28;20415;-77
2023/11/27 03:17:17;;;;;;;13.55;7.35;;;9.40;99.90;;;;;;4972374;28;20019;-78
2023/11/27 03:19:43;;;;;;;12.52;7.10;;;9.40;99.90;;;;;;4964305;28;20022;-77
2023/11/27 03:22:08;;;;;;;14.20;7.28;;;9.40;99.90;;;;;;4973615;28;20018;-77
2023/11/27 03:24:34;;;;;;;14.27;7.60;;;9.40;99.90;;;;;;4972836;28;20439;-78
2023/11/27 03:26:59;;;;;;;13.23;7.50;;;9.40;99.90;;;;;;4973117;28;20550;-77
2023/11/27 03:29:25;;;;;;;16.80;7.90;;;9.40;99.90;;;;;;4973323;28;20030;-77
2023/11/27 03:31:50;;;;;;;11.35;6.75;;;9.40;99.90;;;;;;4970079;28;20022;-77
2023/11/27 03:34:16;;;;;;;14.45;7.45;;;9.50;99.90;;;;;;4971699;28;20081;-78
2023/11/27 03:36:41;;;;;;;13.68;7.03;;;9.50;99.90;;;;;;4973139;28;20023;-78
2023/11/27 03:39:07;;;;;;;11.43;6.93;;;9.40;99.90;;;;;;4972711;28;20031;-77
2023/11/27 03:41:32;;;;;;;12.40;7.10;;;9.50;99.90;;;;;;4972784;28;20030;-77
2023/11/27 03:43:59;;;;;;;12.43;7.55;;;9.50;99.90;;;;;;4972805;28;20030;-78
2023/11/27 03:46:25;;;;;;;11.57;7.13;;;9.50;99.90;;;;;;4972883;28;20019;-77
2023/11/27 03:48:51;;;;;;;14.52;7.40;;;9.40;99.90;;;;;;4972612;28;20026;-77
2023/11/27 03:51:16;;;;;;;11.25;6.60;;;9.50;99.90;;;;;;4972947;28;20023;-77
2023/11/27 03:53:42;;;;;;;14.25;7.55;;;9.50;99.90;;;;;;4972742;28;20041;-78
2023/11/27 03:56:08;;;;;;;14.57;7.70;;;9.40;99.90;;;;;;4972895;28;20404;-77
2023/11/27 03:58:34;;;;;;;13.40;7.80;;;9.40;99.90;;;;;;4972547;28;20094;-78
2023/11/27 04:01:03;;;;;;;16.48;8.75;;;9.40;99.90;;;;;;4972836;28;20019;-76
2023/11/27 04:03:28;;;;;;;11.13;7.18;;;9.40;99.90;;;;;;4971422;28;20031;-77
2023/11/27 04:05:54;;;;;;;12.43;7.38;;;9.40;99.90;;;;;;4972402;28;20038;-77
2023/11/27 04:08:19;;;;;;;16.42;7.38;;;9.40;99.90;;;;;;4972620;28;20031;-77
2023/11/27 04:10:45;;;;;;;15.45;8.23;;;9.40;99.90;;;;;;4972572;28;20026;-77
2023/11/27 04:13:11;;;;;;;13.48;7.65;;;9.40;99.90;;;;;;4971904;28;20480;-77
2023/11/27 04:15:36;;;;;;;11.50;7.38;;;9.40;99.90;;;;;;4970272;28;20503;-77
2023/11/27 04:18:02;;;;;;;12.82;8.10;;;9.40;99.90;;;;;;4966423;28;20023;-78
2023/11/27 04:20:27;;;;;;;13.98;7.45;;;9.40;99.90;;;;;;4972064;28;20562;-78
2023/11/27 04:22:53;;;;;;;15.65;7.68;;;9.40;99.90;;;;;;4972469;28;20034;-78
2023/11/27 04:25:19;;;;;;;12.88;7.55;;;9.40;99.90;;;;;;4972239;28;20078;-77
2023/11/27 04:27:44;;;;;;;14.52;7.45;;;9.40;99.90;;;;;;4971812;28;20535;-78
2023/11/27 04:30:12;;;;;;;15.18;8.32;;;9.40;99.90;;;;;;4977172;28;20026;-77
2023/11/27 04:32:37;;;;;;;16.05;7.72;;;9.40;99.90;;;;;;4970559;28;20753;-77
2023/11/27 04:35:03;;;;;;;15.00;7.30;;;9.40;99.90;;;;;;4972118;28;20050;-77
2023/11/27 04:37:30;;;;;;;12.60;7.47;;;9.40;99.90;;;;;;4971238;28;20106;-75
2023/11/27 04:39:56;;;;;;;15.00;7.72;;;9.40;99.90;;;;;;4971487;28;20050;-77
2023/11/27 04:42:22;;;;;;;15.30;7.68;;;9.40;99.90;;;;;;4971965;28;20477;-78
2023/11/27 04:44:49;;;;;;;11.55;7.68;;;9.40;99.90;;;;;;4975689;28;20050;-77
2023/11/27 04:47:16;;;;;;;11.73;7.15;;;9.40;99.90;;;;;;4972498;28;20062;-78
2023/11/27 04:49:42;;;;;;;13.07;7.53;;;9.50;99.90;;;;;;4971712;28;20026;-78
2023/11/27 04:52:07;;;;;;;11.10;6.88;;;9.40;99.90;;;;;;4971607;28;20019;-77
2023/11/27 04:54:33;;;;;;;14.35;6.80;;;9.40;99.90;;;;;;4972001;28;20472;-77
2023/11/27 04:56:59;;;;;;;10.85;6.40;;;9.40;99.90;;;;;;4971727;28;20078;-77
2023/11/27 04:59:26;;;;;;;12.23;6.13;;;9.40;99.90;;;;;;4971416;28;20027;-78
2023/11/27 05:01:52;;;;;;;11.82;7.28;;;9.40;99.90;;;;;;4971576;28;20050;-77
2023/11/27 05:04:18;;;;;;;11.00;6.38;;;9.40;99.90;;;;;;4971820;28;20027;-77
2023/11/27 05:06:44;;;;;;;12.32;7.13;;;9.40;99.90;;;;;;4971275;28;20030;-78
2023/11/27 05:09:12;;;;;;;12.75;7.10;;;9.40;99.90;;;;;;4973110;28;20025;-77
2023/11/27 05:11:38;;;;;;;11.38;6.30;;;9.40;99.90;;;;;;4972397;28;20337;-77
2023/11/27 05:14:04;;;;;;;18.73;7.88;;;9.40;99.90;;;;;;4969577;28;20027;-77
2023/11/27 05:16:30;;;;;;;13.88;7.28;;;9.40;99.90;;;;;;4971048;28;20027;-77
2023/11/27 05:18:55;;;;;;;13.63;6.90;;;9.40;99.90;;;;;;4976959;28;20476;-77
2023/11/27 05:21:21;;;;;;;9.63;6.15;;;9.40;99.90;;;;;;4970972;28;20057;-77
2023/11/27 05:23:47;;;;;;;12.52;6.68;;;9.40;99.90;;;;;;4971089;28;20574;-76
2023/11/27 05:26:13;;;;;;;12.23;6.70;;;9.40;99.90;;;;;;4971160;28;20030;-77
2023/11/27 05:28:40;;;;;;;14.45;6.40;;;9.40;99.90;;;;;;4970595;28;20026;-77
2023/11/27 05:31:06;;;;;;;13.10;7.05;;;9.40;99.90;;;;;;4977007;28;21396;-77
2023/11/27 05:33:32;;;;;;;13.07;7.20;;;9.40;99.90;;;;;;4969337;28;20031;-76
2023/11/27 05:35:57;;;;;;;13.82;6.82;;;9.30;99.90;;;;;;4970900;28;20050;-77
2023/11/27 05:38:23;;;;;;;12.20;6.65;;;9.30;99.90;;;;;;4967458;28;20058;-77
2023/11/27 05:40:50;;;;;;;13.13;7.57;;;9.30;99.90;;;;;;4971155;28;20042;-77
2023/11/27 05:43:17;;;;;;;17.65;7.07;;;9.30;99.90;;;;;;4969483;28;20061;-77
2023/11/27 05:45:43;;;;;;;17.80;7.35;;;9.30;99.90;;;;;;4970456;28;20613;-77
2023/11/27 05:48:09;;;;;;;10.55;6.57;;;9.30;99.90;;;;;;4971040;28;20031;-77
2023/11/27 05:50:39;;;;;;;12.23;6.90;;;9.30;99.90;;;;;;4970263;28;20038;-77
2023/11/27 05:53:05;;;;;;;14.95;7.60;;;9.40;99.90;;;;;;4970331;28;20023;-77
2023/11/27 05:55:31;;;;;;;13.77;7.20;;;9.40;99.90;;;;;;4970719;28;20081;-77
2023/11/27 05:57:57;;;;;;;14.82;7.22;;;9.40;99.90;;;;;;4970812;28;20105;-77
2023/11/27 06:00:24;;;;;;;12.70;7.47;;;9.30;99.90;;;;;;4970483;28;20014;-76
2023/11/27 06:02:52;;;;;;;12.55;7.15;;;9.40;99.90;;;;;;4970582;28;20027;-77
2023/11/27 06:05:18;;;;;;;15.02;6.97;;;9.30;99.90;;;;;;4970799;28;20387;-77
2023/11/27 06:07:45;;;;;;;11.88;6.55;;;9.30;99.90;;;;;;4970239;28;20035;-78
2023/11/27 06:10:11;;;;;;;12.52;6.65;;;9.40;99.90;;;;;;4973199;28;20014;-77
2023/11/27 06:12:37;;;;;;;13.93;6.78;;;9.40;99.90;;;;;;4966845;28;20595;-77
2023/11/27 06:15:03;;;;;;;16.42;7.15;;;9.40;99.90;;;;;;4969999;28;20018;-77
2023/11/27 06:17:28;;;;;;;13.48;6.93;;;9.40;99.90;;;;;;4970738;28;20093;-77
2023/11/27 06:19:54;;;;;;;11.70;6.63;;;9.40;99.90;;;;;;4970467;28;20369;-77
2023/11/27 06:22:19;;;;;;;13.48;7.07;;;9.40;99.90;;;;;;4974634;28;20022;-77
2023/11/27 06:24:45;;;;;;;16.88;6.88;;;9.40;99.90;;;;;;4969017;28;20524;-78
2023/11/27 06:27:10;;;;;;;10.85;6.45;;;9.40;99.90;;;;;;4969066;28;20030;-76
2023/11/27 06:29:36;;;;;;;12.57;6.70;;;9.40;99.90;;;;;;4970648;28;20065;-77
2023/11/27 06:32:01;;;;;;;9.25;6.07;;;9.40;99.90;;;;;;4970538;28;20030;-77
2023/11/27 06:34:27;;;;;;;15.02;6.97;;;9.40;99.90;;;;;;4971565;28;20019;-77
2023/11/27 06:36:52;;;;;;;13.80;6.35;;;9.40;99.90;;;;;;4974372;28;20034;-77
2023/11/27 06:39:18;;;;;;;13.88;5.55;;;9.40;99.90;;;;;;4973523;28;20019;-77
2023/11/27 06:41:44;;;;;;;10.32;6.13;;;9.40;99.90;;;;;;4974446;28;20047;-77
2023/11/27 06:44:12;;;;;;;11.68;6.45;;;9.40;99.90;;;;;;4974122;28;20026;-77
2023/11/27 06:46:39;;;;;;;13.07;5.65;;;9.40;99.90;;;;;;4974910;28;20369;-77
2023/11/27 06:49:05;;;;;;;10.25;6.53;;;9.40;99.90;;;;;;4974107;28;20033;-78
2023/11/27 06:51:31;;;;;;;11.60;7.10;;;9.40;99.90;;;;;;4974401;28;20046;-78
2023/11/27 06:53:56;;;;;;;25.23;6.55;;;9.40;99.90;;;;;;4973526;28;20439;-77
2023/11/27 06:56:22;;;;;;;11.38;6.18;;;9.40;99.90;;;;;;4973620;28;20031;-77
2023/11/27 06:58:47;;;;;;;10.68;6.78;;;9.40;99.90;;;;;;4974075;28;20031;-78
2023/11/27 07:01:13;;;;;;;14.02;6.78;;;9.40;99.90;;;;;;4973633;28;20027;-78
2023/11/27 07:03:39;;;;;;;11.73;6.68;;;9.40;99.90;;;;;;4973788;28;20061;-77
2023/11/27 07:06:05;;;;;;;12.32;6.43;;;9.40;99.90;;;;;;4973895;28;20069;-77
2023/11/27 07:08:31;;;;;;;10.93;6.50;;;9.30;99.90;;;;;;4973302;28;20031;-78
2023/11/27 07:10:57;;;;;;;12.20;7.00;;;9.30;99.90;;;;;;4973499;28;20027;-78
2023/11/27 07:13:25;;;;;;;13.20;8.05;;;9.30;99.90;;;;;;4973631;28;20555;-77
2023/11/27 07:15:50;;;;;;;14.93;8.07;;;9.30;99.90;;;;;;4971502;28;20030;-77
2023/11/27 07:18:16;;;;;;;14.07;8.38;;;9.30;99.90;;;;;;4973342;28;20101;-77
2023/11/27 07:20:42;;;;;;;14.63;7.57;;;9.40;99.90;;;;;;4972521;28;20476;-77
2023/11/27 07:23:07;;;;;;;15.68;7.72;;;9.30;99.90;;;;;;4972151;28;20031;-77
2023/11/27 07:25:33;;;;;;;15.45;7.32;;;9.30;99.90;;;;;;4972993;28;20030;-78
2023/11/27 07:27:58;;;;;;;17.33;8.32;;;9.30;99.90;;;;;;4973564;28;20126;-76
2023/11/27 07:30:24;;;;;;;11.57;7.20;;;9.30;99.90;;;;;;4973346;28;20062;-77
2023/11/27 07:32:49;;;;;;;12.75;7.32;;;9.40;99.90;;;;;;4972600;28;20424;-77
2023/11/27 07:35:15;;;;;;;14.68;8.20;;;9.30;99.90;;;;;;4976949;28;20392;-78
2023/11/27 07:37:42;;;;;;;14.57;8.18;;;9.30;99.90;;;;;;4972812;28;20535;-77
2023/11/27 07:40:10;;;;;;;11.48;6.88;;;9.30;99.90;;;;;;4973049;28;20018;-77
2023/11/27 07:42:38;;;;;;;12.65;7.35;;;9.30;99.90;;;;;;4971883;28;20130;-77
2023/11/27 07:45:05;;;;;;;13.38;7.60;;;9.30;99.90;;;;;;4971368;28;20042;-77
2023/11/27 07:47:30;;;;;;;14.93;7.90;;;9.30;99.90;;;;;;4977535;28;20396;-78
2023/11/27 07:49:56;;;;;;;13.18;7.88;;;9.30;99.90;;;;;;4973584;28;20029;-76
2023/11/27 07:52:22;;;;;;;13.10;7.93;;;9.30;99.90;;;;;;4972870;28;20449;-77
2023/11/27 07:54:47;;;;;;;6.68;2.70;;;9.30;99.90;;;;;;4971712;28;20024;-74
2023/11/27 07:57:14;;;;;;;7.53;3.10;;;11.70;99.90;;;;;;4972720;28;20672;-74
2023/11/27 07:59:40;;;;;;;5.75;3.30;;;12.70;99.90;;;;;;4977881;28;20042;-74
2023/11/27 08:02:06;;;;;;;6.72;3.40;;;13.10;99.90;;;;;;4972770;28;20625;-76
2023/11/27 08:04:33;;;;;;;8.43;4.18;;;13.10;99.90;;;;;;4970924;28;20030;-77
2023/11/27 08:06:59;;;;;;;7.40;4.53;;;11.30;99.90;;;;;;4972521;28;20066;-76
2023/11/27 08:09:25;;;;;;;8.27;5.50;;;10.40;99.90;;;;;;4970973;28;20074;-76
2023/11/27 08:11:51;;;;;;;9.07;5.18;;;9.90;99.90;;;;;;4971655;28;20463;-77
2023/11/27 08:14:17;;;;;;;11.02;5.53;;;9.70;99.90;;;;;;4968978;28;20031;-77
2023/11/27 08:16:44;;;;;;;8.82;4.95;;;9.70;99.90;;;;;;4978198;28;20022;-77
2023/11/27 08:19:13;;;;;;;8.45;5.03;;;9.60;99.90;;;;;;4969307;28;20488;-77
2023/11/27 08:21:39;;;;;;;9.30;5.57;;;9.50;99.90;;;;;;4959373;28;20023;-77
2023/11/27 08:24:05;;;;;;;10.25;5.43;;;9.50;99.90;;;;;;4970076;28;20034;-77
2023/11/27 08:26:39;;;;;;;12.30;5.82;;;9.40;99.90;;;;;;4988293;28;20034;-77
2023/11/27 08:29:07;;;;;;;10.40;5.40;;;9.40;99.90;;;;;;4973824;28;20022;-77
2023/11/27 08:31:32;;;;;;;8.75;5.75;;;9.40;99.90;;;;;;4963572;28;20030;-77
2023/11/27 08:33:58;;;;;;;14.45;6.28;;;9.40;99.90;;;;;;4962234;28;20019;-77
2023/11/27 08:36:27;;;;;;;13.18;6.28;;;9.40;99.90;;;;;;4966998;28;20436;-77
2023/11/27 08:38:55;;;;;;;10.33;5.87;;;9.40;99.90;;;;;;4974126;28;20393;-77
2023/11/27 08:41:21;;;;;;;15.38;5.93;;;9.40;99.90;;;;;;4968952;28;20027;-77
2023/11/27 08:43:47;;;;;;;10.68;5.70;;;9.40;99.90;;;;;;4966754;28;20452;-77
2023/11/27 08:46:16;;;;;;;10.32;5.80;;;9.30;99.90;;;;;;4967899;28;20018;-78
2023/11/27 08:48:41;;;;;;;9.65;5.95;;;9.30;99.90;;;;;;4961045;28;20031;-77
2023/11/27 08:51:10;;;;;;;11.13;5.82;;;9.40;99.90;;;;;;4968691;28;20399;-77
2023/11/27 08:53:35;;;;;;;10.88;6.13;;;9.40;99.90;;;;;;4970413;28;20046;-77
2023/11/27 08:56:02;;;;;;;10.55;5.75;;;9.30;99.90;;;;;;4968936;28;20035;-77
2023/11/27 08:58:28;;;;;;;10.68;5.40;;;9.40;99.90;;;;;;4970508;28;20023;-78
2023/11/27 09:00:54;;;;;;;10.93;5.75;;;9.40;99.90;;;;;;4969435;28;20035;-78
2023/11/27 09:03:20;;;;;;;10.60;5.75;;;9.40;99.90;;;;;;4966960;28;20534;-77
2023/11/27 09:05:46;;;;;;;9.18;5.53;;;9.40;99.90;;;;;;4964952;28;20106;-78
2023/11/27 09:08:13;;;;;;;11.65;5.22;;;9.40;99.90;;;;;;4966665;28;20053;-76
2023/11/27 09:10:39;;;;;;;9.15;5.35;;;9.40;99.90;;;;;;4966854;28;20504;-78
2023/11/27 09:13:05;;;;;;;7.25;4.95;;;9.40;99.90;;;;;;4966200;28;20228;-77
2023/11/27 09:15:31;;;;;;;11.02;5.63;;;9.40;99.90;;;;;;4967734;28;20042;-77
2023/11/27 09:17:57;;;;;;;8.48;4.97;;;9.40;99.90;;;;;;4967547;28;20015;-77
2023/11/27 09:20:22;;;;;;;11.52;5.95;;;9.40;99.90;;;;;;4967976;28;20102;-77
2023/11/27 09:22:48;;;;;;;10.52;5.40;;;9.40;99.90;;;;;;4969157;28;20027;-77
2023/11/27 09:25:15;;;;;;;8.35;5.25;;;9.40;99.90;;;;;;4969579;28;20539;-77
2023/11/27 09:27:41;;;;;;;9.25;5.63;;;9.40;99.90;;;;;;4971293;28;20556;-77
2023/11/27 09:30:07;;;;;;;9.38;5.82;;;9.40;99.90;;;;;;4970654;28;20077;-77
2023/11/27 09:32:34;;;;;;;9.30;4.57;;;9.40;99.90;;;;;;4970389;28;20042;-78
2023/11/27 09:35:01;;;;;;;9.80;5.07;;;9.40;99.90;;;;;;4968679;28;20019;-77
2023/11/27 09:37:29;;;;;;;12.30;5.72;;;9.30;99.90;;;;;;4970299;28;20488;-77
2023/11/27 09:39:55;;;;;;;8.00;4.72;;;9.30;99.90;;;;;;4971015;28;20300;-78
2023/11/27 09:42:20;;;;;;;7.45;5.32;;;9.40;99.90;;;;;;4964391;28;20113;-78
2023/11/27 09:44:46;;;;;;;10.50;4.85;;;9.40;99.90;;;;;;4971522;28;20019;-75
2023/11/27 09:47:13;;;;;;;9.25;4.95;;;9.30;99.90;;;;;;4970857;28;20469;-77
2023/11/27 09:49:47;;;;;;;7.57;5.00;;;9.40;99.90;;;;;;4969871;28;20018;-77
2023/11/27 09:52:17;;;;;;;6.82;4.15;;;9.30;99.90;;;;;;4970814;28;21845;-76
2023/11/27 09:54:50;;;;;;;8.73;4.88;;;9.30;99.90;;;;;;4970739;28;20396;-77
2023/11/27 09:57:17;;;;;;;9.20;4.60;;;9.40;99.90;;;;;;4970659;28;20086;-77
2023/11/27 09:59:43;;;;;;;8.00;5.82;;;9.30;99.90;;;;;;4967898;28;20046;-77
2023/11/27 10:02:09;;;;;;;9.35;4.95;;;9.30;99.90;;;;;;4969856;28;20061;-77
2023/11/27 10:04:35;;;;;;;8.77;4.80;;;9.30;99.90;;;;;;4973113;28;20114;-77
2023/11/27 10:07:01;;;;;;;7.97;4.53;;;9.30;99.90;;;;;;4970390;28;20019;-76
2023/11/27 10:09:26;;;;;;;9.52;4.90;;;9.40;99.90;;;;;;4968847;28;20038;-77
2023/11/27 10:12:00;;;;;;;7.13;4.53;;;9.40;99.90;;;;;;4969087;28;20081;-78
2023/11/27 10:14:27;;;;;;;8.73;4.90;;;9.30;99.90;;;;;;4969611;28;20034;-77
2023/11/27 10:16:54;;;;;;;7.07;4.25;;;9.30;99.90;;;;;;4970132;28;20019;-77
2023/11/27 10:19:25;;;;;;;8.52;4.80;;;9.30;99.90;;;;;;4970591;28;20125;-78
2023/11/27 10:21:51;;;;;;;8.10;4.43;;;9.40;99.90;;;;;;4970760;28;20019;-78
2023/11/27 10:24:17;;;;;;;9.27;5.05;;;9.30;99.90;;;;;;4969030;28;20093;-77
2023/11/27 10:26:43;;;;;;;7.18;4.88;;;9.40;99.90;;;;;;4969173;28;20030;-77
2023/11/27 10:29:25;;;;;;;8.88;4.55;;;9.40;99.90;;;;;;4969000;28;20027;-77
2023/11/27 10:31:58;;;;;;;7.10;4.07;;;9.40;99.90;;;;;;4970854;28;20031;-78
2023/11/27 10:34:43;;;;;;;8.38;4.55;;;9.40;99.90;;;;;;4968097;28;20027;-77
2023/11/27 10:37:08;;;;;;;9.68;5.00;;;9.40;99.90;;;;;;4968570;28;20015;-77
2023/11/27 10:39:34;;;;;;;8.77;5.03;;;9.40;99.90;;;;;;4973976;28;20114;-77
2023/11/27 10:42:04;;;;;;;8.13;4.72;;;9.40;99.90;;;;;;4970180;28;20119;-77
2023/11/27 10:44:36;;;;;;;8.32;4.82;;;9.40;99.90;;;;;;4970274;28;20053;-77
2023/11/27 10:47:10;;;;;;;9.23;4.70;;;9.30;99.90;;;;;;4970183;28;20568;-77
2023/11/27 10:49:39;;;;;;;8.85;4.38;;;9.30;99.90;;;;;;4968822;28;20030;-77
2023/11/27 10:52:09;;;;;;;5.47;4.20;;;9.30;99.90;;;;;;4969636;28;20023;-77
2023/11/27 10:54:38;;;;;;;6.90;4.65;;;9.30;99.90;;;;;;4968953;28;20031;-77
2023/11/27 10:57:06;;;;;;;7.32;4.53;;;9.40;99.90;;;;;;4967287;28;20019;-77
2023/11/27 10:59:33;;;;;;;6.97;4.78;;;9.40;99.90;;;;;;4969265;28;20037;-77
2023/11/27 11:02:02;;;;;;;7.68;4.50;;;9.40;99.90;;;;;;4968713;28;20031;-77
2023/11/27 11:04:41;;;;;;;6.38;3.88;;;9.40;99.90;;;;;;4969415;28;20031;-77
2023/11/27 11:07:18;;;;;;;8.73;4.43;;;9.40;99.90;;;;;;4966893;28;20551;-77
2023/11/27 11:09:48;;;;;;;9.98;4.38;;;9.40;99.90;;;;;;4964961;28;20614;-78
2023/11/27 11:12:19;;;;;;;5.93;3.55;;;9.40;99.90;;;;;;4969844;28;20108;-77
2023/11/27 11:14:46;;;;;;;6.32;3.85;;;9.50;99.90;;;;;;4966880;28;20027;-77
2023/11/27 11:17:19;;;;;;;7.47;4.05;;;9.40;99.90;;;;;;4966417;28;20019;-77
2023/11/27 11:20:15;;;;;;;8.68;3.53;;;9.50;99.90;;;;;;4973400;28;20047;-78
2023/11/27 11:22:52;;;;;;;6.28;3.50;;;9.50;99.90;;;;;;4987827;28;20058;-78
2023/11/27 11:25:45;;;;;;;7.55;4.03;;;9.50;99.90;;;;;;4972745;28;20472;-77
2023/11/27 11:28:21;;;;;;;7.95;4.10;;;9.40;99.90;;;;;;4986861;28;20035;-77
2023/11/27 11:31:15;;;;;;;6.78;4.10;;;9.40;99.90;;;;;;4970918;28;20046;-78
2023/11/27 11:33:47;;;;;;;8.68;4.20;;;9.50;99.90;;;;;;4972039;28;20035;-78
2023/11/27 11:36:30;;;;;;;5.43;3.55;;;9.50;99.90;;;;;;4973349;28;20014;-77
2023/11/27 11:38:55;;;;;;;4.95;3.40;;;9.50;99.90;;;;;;4974075;28;20033;-78
2023/11/27 11:41:21;;;;;;;9.35;3.95;;;9.40;99.90;;;;;;4972484;28;20023;-77
2023/11/27 11:43:47;;;;;;;4.88;3.25;;;9.50;99.90;;;;;;4975321;28;20039;-77
2023/11/27 11:46:19;;;;;;;7.78;3.80;;;9.40;99.90;;;;;;4972726;28;20507;-77
2023/11/27 11:49:03;;;;;;;5.15;3.47;;;9.50;99.90;;;;;;4971858;28;20045;-77
2023/11/27 11:51:32;;;;;;;5.80;3.63;;;9.40;99.90;;;;;;4972739;28;20105;-77
2023/11/27 11:53:57;;;;;;;7.05;4.00;;;9.40;99.90;;;;;;4967653;28;20034;-76
2023/11/27 11:56:27;;;;;;;6.65;3.80;;;9.40;99.90;;;;;;4971591;28;20028;-77
2023/11/27 11:58:57;;;;;;;7.83;3.87;;;9.40;99.90;;;;;;4972781;28;20047;-77
2023/11/27 12:01:32;;;;;;;6.45;3.30;;;9.40;99.90;;;;;;4972984;28;20324;-77
2023/11/27 12:04:05;;;;;;;8.85;3.83;;;9.40;99.90;;;;;;4969166;28;20544;-78
2023/11/27 12:06:32;;;;;;;6.10;3.30;;;9.40;99.90;;;;;;4972527;28;20023;-78
2023/11/27 12:08:59;;;;;;;8.55;4.18;;;9.40;99.90;;;;;;4972675;28;20049;-77
2023/11/27 12:11:30;;;;;;;4.82;3.58;;;9.40;99.90;;;;;;4973906;28;20018;-77
2023/11/27 12:13:57;;;;;;;5.10;3.15;;;9.40;99.90;;;;;;4968239;28;20026;-77
2023/11/27 12:16:22;;;;;;;5.85;3.80;;;9.40;99.90;;;;;;4967598;28;20699;-77
2023/11/27 12:18:50;;;;;;;6.15;3.08;;;9.40;99.90;;;;;;4977965;28;20023;-78
2023/11/27 12:21:22;;;;;;;5.65;3.55;;;9.40;99.90;;;;;;4972709;28;20493;-77
2023/11/27 12:23:51;;;;;;;5.63;3.40;;;9.40;99.90;;;;;;4972427;28;20025;-77
2023/11/27 12:26:22;;;;;;;7.30;3.90;;;9.40;99.90;;;;;;4971903;28;20051;-77
2023/11/27 12:28:54;;;;;;;8.48;3.85;;;9.40;99.90;;;;;;4970465;28;20023;-78
2023/11/27 12:31:27;;;;;;;5.78;3.80;;;9.40;99.90;;;;;;4970815;28;20027;-77
2023/11/27 12:33:53;;;;;;;4.43;3.75;;;9.40;99.90;;;;;;4972088;28;20633;-77
2023/11/27 12:36:21;;;;;;;8.75;4.00;;;9.40;99.90;;;;;;4972338;28;20019;-76
2023/11/27 12:38:52;;;;;;;6.78;3.88;;;9.40;99.90;;;;;;4971696;28;20380;-77
2023/11/27 12:41:31;;;;;;;8.65;3.65;;;9.40;99.90;;;;;;4969947;28;20015;-77
2023/11/27 12:44:19;;;;;;;6.07;3.45;;;9.30;99.90;;;;;;4984253;28;20495;-77
2023/11/27 12:46:52;;;;;;;6.28;3.50;;;9.30;99.90;;;;;;4971009;28;20066;-76
2023/11/27 12:49:22;;;;;;;5.72;3.72;;;9.30;99.90;;;;;;4972490;28;20397;-77
2023/11/27 12:51:51;;;;;;;;;;;9.30;99.90;;;;;;4971974;28;20068;-77
2023/11/27 12:54:20;;;;;;;7.25;3.80;;;9.30;99.90;;;;;;4969324;28;19910;-77